sensor_id;sensor_type;location;lat;lon;timestamp;P1;durP1;ratioP1;P2;durP2;ratioP2
57025;SDS011;43961;52.940;6.834;2023-05-07T00:00:02;40.40;;;32.10;;
57025;SDS011;43961;52.940;6.834;2023-05-07T00:02:32;39.15;;;29.80;;
57025;SDS011;43961;52.940;6.834;2023-05-07T00:04:57;46.08;;;32.10;;
57025;SDS011;43961;52.940;6.834;2023-05-07T00:07:23;49.63;;;34.08;;
57025;SDS011;43961;52.940;6.834;2023-05-07T00:09:50;43.78;;;33.35;;
57025;SDS011;43961;52.940;6.834;2023-05-07T00:12:15;51.28;;;36.33;;
57025;SDS011;43961;52.940;6.834;2023-05-07T00:14:41;45.70;;;33.10;;
57025;SDS011;43961;52.940;6.834;2023-05-07T00:17:07;52.88;;;34.28;;
57025;SDS011;43961;52.940;6.834;2023-05-07T00:19:32;54.53;;;34.58;;
57025;SDS011;43961;52.940;6.834;2023-05-07T00:21:58;49.65;;;35.58;;
57025;SDS011;43961;52.940;6.834;2023-05-07T00:24:24;41.05;;;32.42;;
57025;SDS011;43961;52.940;6.834;2023-05-07T00:26:49;45.47;;;34.42;;
57025;SDS011;43961;52.940;6.834;2023-05-07T00:29:15;44.45;;;32.53;;
57025;SDS011;43961;52.940;6.834;2023-05-07T00:31:41;48.53;;;34.55;;
57025;SDS011;43961;52.940;6.834;2023-05-07T00:34:06;46.30;;;33.70;;
57025;SDS011;43961;52.940;6.834;2023-05-07T00:36:32;59.90;;;35.90;;
57025;SDS011;43961;52.940;6.834;2023-05-07T00:38:59;47.45;;;34.42;;
57025;SDS011;43961;52.940;6.834;2023-05-07T00:41:25;51.25;;;36.47;;
57025;SDS011;43961;52.940;6.834;2023-05-07T00:43:51;49.70;;;36.42;;
57025;SDS011;43961;52.940;6.834;2023-05-07T00:46:18;44.88;;;33.88;;
57025;SDS011;43961;52.940;6.834;2023-05-07T00:48:46;59.03;;;36.40;;
57025;SDS011;43961;52.940;6.834;2023-05-07T00:51:12;47.28;;;36.35;;
57025;SDS011;43961;52.940;6.834;2023-05-07T00:53:38;44.15;;;33.45;;
57025;SDS011;43961;52.940;6.834;2023-05-07T00:56:04;47.65;;;34.67;;
57025;SDS011;43961;52.940;6.834;2023-05-07T00:58:31;52.25;;;36.65;;
57025;SDS011;43961;52.940;6.834;2023-05-07T01:00:58;54.00;;;37.28;;
57025;SDS011;43961;52.940;6.834;2023-05-07T01:03:24;51.15;;;36.47;;
57025;SDS011;43961;52.940;6.834;2023-05-07T01:05:50;49.72;;;36.95;;
57025;SDS011;43961;52.940;6.834;2023-05-07T01:08:18;59.80;;;38.20;;
57025;SDS011;43961;52.940;6.834;2023-05-07T01:10:43;52.88;;;38.13;;
57025;SDS011;43961;52.940;6.834;2023-05-07T01:13:11;53.75;;;38.22;;
57025;SDS011;43961;52.940;6.834;2023-05-07T01:15:39;48.30;;;37.20;;
57025;SDS011;43961;52.940;6.834;2023-05-07T01:18:06;52.08;;;37.45;;
57025;SDS011;43961;52.940;6.834;2023-05-07T01:20:32;56.90;;;40.05;;
57025;SDS011;43961;52.940;6.834;2023-05-07T01:25:26;54.42;;;38.28;;
57025;SDS011;43961;52.940;6.834;2023-05-07T01:27:52;53.40;;;38.78;;
57025;SDS011;43961;52.940;6.834;2023-05-07T01:30:18;62.65;;;40.70;;
57025;SDS011;43961;52.940;6.834;2023-05-07T01:32:59;58.88;;;40.70;;
57025;SDS011;43961;52.940;6.834;2023-05-07T01:35:34;57.13;;;41.63;;
57025;SDS011;43961;52.940;6.834;2023-05-07T01:38:03;60.92;;;41.22;;
57025;SDS011;43961;52.940;6.834;2023-05-07T01:40:31;64.33;;;42.70;;
57025;SDS011;43961;52.940;6.834;2023-05-07T01:42:56;65.53;;;41.85;;
57025;SDS011;43961;52.940;6.834;2023-05-07T01:45:22;64.80;;;42.58;;
57025;SDS011;43961;52.940;6.834;2023-05-07T01:47:49;63.08;;;42.08;;
57025;SDS011;43961;52.940;6.834;2023-05-07T01:50:15;73.28;;;44.33;;
57025;SDS011;43961;52.940;6.834;2023-05-07T01:55:09;63.92;;;44.17;;
57025;SDS011;43961;52.940;6.834;2023-05-07T01:57:35;61.15;;;41.92;;
57025;SDS011;43961;52.940;6.834;2023-05-07T02:00:00;62.35;;;44.72;;
57025;SDS011;43961;52.940;6.834;2023-05-07T02:02:27;75.50;;;45.17;;
57025;SDS011;43961;52.940;6.834;2023-05-07T02:04:53;65.13;;;42.97;;
57025;SDS011;43961;52.940;6.834;2023-05-07T02:07:19;69.35;;;47.78;;
57025;SDS011;43961;52.940;6.834;2023-05-07T02:09:45;72.18;;;47.35;;
57025;SDS011;43961;52.940;6.834;2023-05-07T02:12:10;70.93;;;45.97;;
57025;SDS011;43961;52.940;6.834;2023-05-07T02:14:36;75.55;;;48.90;;
57025;SDS011;43961;52.940;6.834;2023-05-07T02:17:01;74.60;;;47.92;;
57025;SDS011;43961;52.940;6.834;2023-05-07T02:19:27;70.47;;;47.90;;
57025;SDS011;43961;52.940;6.834;2023-05-07T02:21:53;78.15;;;51.55;;
57025;SDS011;43961;52.940;6.834;2023-05-07T02:24:19;75.18;;;49.53;;
57025;SDS011;43961;52.940;6.834;2023-05-07T02:26:45;85.78;;;48.58;;
57025;SDS011;43961;52.940;6.834;2023-05-07T02:29:10;77.13;;;49.15;;
57025;SDS011;43961;52.940;6.834;2023-05-07T02:31:36;78.70;;;50.75;;
57025;SDS011;43961;52.940;6.834;2023-05-07T02:34:01;81.72;;;51.20;;
57025;SDS011;43961;52.940;6.834;2023-05-07T02:36:27;79.07;;;53.47;;
57025;SDS011;43961;52.940;6.834;2023-05-07T02:38:53;80.88;;;53.80;;
57025;SDS011;43961;52.940;6.834;2023-05-07T02:41:19;76.35;;;52.35;;
57025;SDS011;43961;52.940;6.834;2023-05-07T02:43:45;82.05;;;56.22;;
57025;SDS011;43961;52.940;6.834;2023-05-07T02:46:11;80.45;;;53.45;;
57025;SDS011;43961;52.940;6.834;2023-05-07T02:48:37;90.43;;;55.50;;
57025;SDS011;43961;52.940;6.834;2023-05-07T02:51:03;92.28;;;58.03;;
57025;SDS011;43961;52.940;6.834;2023-05-07T02:53:29;89.85;;;53.60;;
57025;SDS011;43961;52.940;6.834;2023-05-07T02:55:55;83.95;;;54.60;;
57025;SDS011;43961;52.940;6.834;2023-05-07T02:58:22;83.15;;;56.33;;
57025;SDS011;43961;52.940;6.834;2023-05-07T03:00:48;82.22;;;53.97;;
57025;SDS011;43961;52.940;6.834;2023-05-07T03:03:14;87.78;;;55.35;;
57025;SDS011;43961;52.940;6.834;2023-05-07T03:05:40;85.53;;;57.00;;
57025;SDS011;43961;52.940;6.834;2023-05-07T03:08:06;93.45;;;57.58;;
57025;SDS011;43961;52.940;6.834;2023-05-07T03:10:32;86.63;;;55.95;;
57025;SDS011;43961;52.940;6.834;2023-05-07T03:12:58;82.68;;;54.53;;
57025;SDS011;43961;52.940;6.834;2023-05-07T03:15:26;107.50;;;60.25;;
57025;SDS011;43961;52.940;6.834;2023-05-07T03:17:53;93.57;;;56.58;;
57025;SDS011;43961;52.940;6.834;2023-05-07T03:20:18;93.38;;;58.88;;
57025;SDS011;43961;52.940;6.834;2023-05-07T03:22:44;97.32;;;57.95;;
57025;SDS011;43961;52.940;6.834;2023-05-07T03:25:10;86.80;;;57.33;;
57025;SDS011;43961;52.940;6.834;2023-05-07T03:27:37;90.65;;;56.40;;
57025;SDS011;43961;52.940;6.834;2023-05-07T03:30:03;90.47;;;55.42;;
57025;SDS011;43961;52.940;6.834;2023-05-07T03:32:30;92.85;;;56.17;;
57025;SDS011;43961;52.940;6.834;2023-05-07T03:34:56;94.68;;;57.83;;
57025;SDS011;43961;52.940;6.834;2023-05-07T03:37:21;93.55;;;55.65;;
57025;SDS011;43961;52.940;6.834;2023-05-07T03:39:47;81.70;;;52.22;;
57025;SDS011;43961;52.940;6.834;2023-05-07T03:42:13;76.95;;;51.38;;
57025;SDS011;43961;52.940;6.834;2023-05-07T03:44:40;79.13;;;50.83;;
57025;SDS011;43961;52.940;6.834;2023-05-07T03:47:05;88.38;;;53.35;;
57025;SDS011;43961;52.940;6.834;2023-05-07T03:49:31;78.70;;;50.65;;
57025;SDS011;43961;52.940;6.834;2023-05-07T03:51:57;74.70;;;51.63;;
57025;SDS011;43961;52.940;6.834;2023-05-07T03:54:22;79.18;;;53.85;;
57025;SDS011;43961;52.940;6.834;2023-05-07T03:56:48;82.50;;;53.22;;
57025;SDS011;43961;52.940;6.834;2023-05-07T03:59:13;76.45;;;52.65;;
57025;SDS011;43961;52.940;6.834;2023-05-07T04:01:39;81.88;;;50.53;;
57025;SDS011;43961;52.940;6.834;2023-05-07T04:04:05;69.72;;;49.88;;
57025;SDS011;43961;52.940;6.834;2023-05-07T04:06:32;85.85;;;55.78;;
57025;SDS011;43961;52.940;6.834;2023-05-07T04:08:57;75.20;;;49.47;;
57025;SDS011;43961;52.940;6.834;2023-05-07T04:11:23;74.63;;;50.90;;
57025;SDS011;43961;52.940;6.834;2023-05-07T04:13:49;82.63;;;51.35;;
57025;SDS011;43961;52.940;6.834;2023-05-07T04:16:15;71.78;;;49.03;;
57025;SDS011;43961;52.940;6.834;2023-05-07T04:18:41;73.47;;;49.25;;
57025;SDS011;43961;52.940;6.834;2023-05-07T04:21:13;79.00;;;51.47;;
57025;SDS011;43961;52.940;6.834;2023-05-07T04:23:42;67.93;;;46.67;;
57025;SDS011;43961;52.940;6.834;2023-05-07T04:26:08;71.28;;;46.97;;
57025;SDS011;43961;52.940;6.834;2023-05-07T04:28:34;69.20;;;48.58;;
57025;SDS011;43961;52.940;6.834;2023-05-07T04:31:00;66.95;;;47.00;;
57025;SDS011;43961;52.940;6.834;2023-05-07T04:33:26;73.53;;;48.88;;
57025;SDS011;43961;52.940;6.834;2023-05-07T04:35:52;69.78;;;46.80;;
57025;SDS011;43961;52.940;6.834;2023-05-07T04:38:17;75.30;;;48.25;;
57025;SDS011;43961;52.940;6.834;2023-05-07T04:40:43;69.20;;;46.00;;
57025;SDS011;43961;52.940;6.834;2023-05-07T04:43:09;74.88;;;46.70;;
57025;SDS011;43961;52.940;6.834;2023-05-07T04:45:36;76.50;;;47.55;;
57025;SDS011;43961;52.940;6.834;2023-05-07T04:48:01;65.38;;;45.25;;
57025;SDS011;43961;52.940;6.834;2023-05-07T04:50:27;65.55;;;47.38;;
57025;SDS011;43961;52.940;6.834;2023-05-07T04:52:53;60.03;;;44.58;;
57025;SDS011;43961;52.940;6.834;2023-05-07T04:55:18;64.22;;;45.90;;
57025;SDS011;43961;52.940;6.834;2023-05-07T04:57:44;68.28;;;45.10;;
57025;SDS011;43961;52.940;6.834;2023-05-07T05:00:10;71.22;;;47.83;;
57025;SDS011;43961;52.940;6.834;2023-05-07T05:02:39;71.72;;;44.05;;
57025;SDS011;43961;52.940;6.834;2023-05-07T05:05:07;70.40;;;47.60;;
57025;SDS011;43961;52.940;6.834;2023-05-07T05:07:33;56.95;;;41.20;;
57025;SDS011;43961;52.940;6.834;2023-05-07T05:09:58;64.88;;;46.35;;
57025;SDS011;43961;52.940;6.834;2023-05-07T05:12:24;68.93;;;47.97;;
57025;SDS011;43961;52.940;6.834;2023-05-07T05:14:50;70.30;;;44.45;;
57025;SDS011;43961;52.940;6.834;2023-05-07T05:17:16;69.55;;;44.80;;
57025;SDS011;43961;52.940;6.834;2023-05-07T05:19:41;66.25;;;43.00;;
57025;SDS011;43961;52.940;6.834;2023-05-07T05:22:07;56.92;;;41.97;;
57025;SDS011;43961;52.940;6.834;2023-05-07T05:24:33;61.33;;;42.92;;
57025;SDS011;43961;52.940;6.834;2023-05-07T05:26:58;61.88;;;45.03;;
57025;SDS011;43961;52.940;6.834;2023-05-07T05:29:27;65.00;;;43.97;;
57025;SDS011;43961;52.940;6.834;2023-05-07T05:31:53;67.43;;;44.10;;
57025;SDS011;43961;52.940;6.834;2023-05-07T05:34:19;60.70;;;42.40;;
57025;SDS011;43961;52.940;6.834;2023-05-07T05:36:45;60.33;;;41.90;;
57025;SDS011;43961;52.940;6.834;2023-05-07T05:39:10;59.80;;;42.90;;
57025;SDS011;43961;52.940;6.834;2023-05-07T05:41:36;61.72;;;42.92;;
57025;SDS011;43961;52.940;6.834;2023-05-07T05:44:02;67.15;;;46.00;;
57025;SDS011;43961;52.940;6.834;2023-05-07T05:46:28;63.50;;;43.53;;
57025;SDS011;43961;52.940;6.834;2023-05-07T05:48:53;60.47;;;43.20;;
57025;SDS011;43961;52.940;6.834;2023-05-07T05:51:20;60.75;;;41.92;;
57025;SDS011;43961;52.940;6.834;2023-05-07T05:53:46;71.75;;;44.70;;
57025;SDS011;43961;52.940;6.834;2023-05-07T05:56:12;67.47;;;46.38;;
57025;SDS011;43961;52.940;6.834;2023-05-07T05:58:37;61.20;;;44.13;;
57025;SDS011;43961;52.940;6.834;2023-05-07T06:01:03;57.22;;;42.65;;
57025;SDS011;43961;52.940;6.834;2023-05-07T06:03:30;61.97;;;44.72;;
57025;SDS011;43961;52.940;6.834;2023-05-07T06:05:57;58.10;;;40.53;;
57025;SDS011;43961;52.940;6.834;2023-05-07T06:08:23;60.58;;;42.67;;
57025;SDS011;43961;52.940;6.834;2023-05-07T06:10:49;71.43;;;45.63;;
57025;SDS011;43961;52.940;6.834;2023-05-07T06:13:15;60.88;;;44.15;;
57025;SDS011;43961;52.940;6.834;2023-05-07T06:15:40;67.85;;;45.90;;
57025;SDS011;43961;52.940;6.834;2023-05-07T06:18:06;62.58;;;44.03;;
57025;SDS011;43961;52.940;6.834;2023-05-07T06:20:32;64.40;;;46.70;;
57025;SDS011;43961;52.940;6.834;2023-05-07T06:22:57;60.40;;;43.80;;
57025;SDS011;43961;52.940;6.834;2023-05-07T06:25:23;62.30;;;44.63;;
57025;SDS011;43961;52.940;6.834;2023-05-07T06:27:48;61.60;;;45.38;;
57025;SDS011;43961;52.940;6.834;2023-05-07T06:30:14;68.00;;;44.30;;
57025;SDS011;43961;52.940;6.834;2023-05-07T06:32:40;63.38;;;44.65;;
57025;SDS011;43961;52.940;6.834;2023-05-07T06:35:06;69.30;;;46.13;;
57025;SDS011;43961;52.940;6.834;2023-05-07T06:37:32;73.47;;;44.92;;
57025;SDS011;43961;52.940;6.834;2023-05-07T06:39:57;63.22;;;44.45;;
57025;SDS011;43961;52.940;6.834;2023-05-07T06:42:23;67.68;;;44.72;;
57025;SDS011;43961;52.940;6.834;2023-05-07T06:44:49;59.70;;;43.45;;
57025;SDS011;43961;52.940;6.834;2023-05-07T06:47:14;62.30;;;44.75;;
57025;SDS011;43961;52.940;6.834;2023-05-07T06:49:40;63.08;;;44.45;;
57025;SDS011;43961;52.940;6.834;2023-05-07T06:52:06;65.30;;;42.78;;
57025;SDS011;43961;52.940;6.834;2023-05-07T06:54:31;63.50;;;43.97;;
57025;SDS011;43961;52.940;6.834;2023-05-07T06:56:57;63.67;;;42.88;;
57025;SDS011;43961;52.940;6.834;2023-05-07T06:59:23;67.70;;;47.30;;
57025;SDS011;43961;52.940;6.834;2023-05-07T07:01:49;64.05;;;43.65;;
57025;SDS011;43961;52.940;6.834;2023-05-07T07:04:15;65.88;;;44.03;;
57025;SDS011;43961;52.940;6.834;2023-05-07T07:06:40;64.10;;;44.30;;
57025;SDS011;43961;52.940;6.834;2023-05-07T07:09:06;66.82;;;45.22;;
57025;SDS011;43961;52.940;6.834;2023-05-07T07:11:31;72.47;;;46.92;;
57025;SDS011;43961;52.940;6.834;2023-05-07T07:13:57;71.32;;;46.45;;
57025;SDS011;43961;52.940;6.834;2023-05-07T07:16:24;71.53;;;46.42;;
57025;SDS011;43961;52.940;6.834;2023-05-07T07:18:49;60.42;;;42.95;;
57025;SDS011;43961;52.940;6.834;2023-05-07T07:21:15;72.43;;;45.13;;
57025;SDS011;43961;52.940;6.834;2023-05-07T07:23:41;66.60;;;44.30;;
57025;SDS011;43961;52.940;6.834;2023-05-07T07:26:07;67.65;;;44.97;;
57025;SDS011;43961;52.940;6.834;2023-05-07T07:28:33;67.15;;;45.83;;
57025;SDS011;43961;52.940;6.834;2023-05-07T07:30:58;65.43;;;46.80;;
57025;SDS011;43961;52.940;6.834;2023-05-07T07:33:24;65.28;;;44.60;;
57025;SDS011;43961;52.940;6.834;2023-05-07T07:35:50;73.13;;;47.47;;
57025;SDS011;43961;52.940;6.834;2023-05-07T07:38:15;75.78;;;47.90;;
57025;SDS011;43961;52.940;6.834;2023-05-07T07:40:41;69.43;;;46.13;;
57025;SDS011;43961;52.940;6.834;2023-05-07T07:43:08;68.30;;;46.58;;
57025;SDS011;43961;52.940;6.834;2023-05-07T07:45:36;67.53;;;45.72;;
57025;SDS011;43961;52.940;6.834;2023-05-07T07:48:02;66.63;;;46.47;;
57025;SDS011;43961;52.940;6.834;2023-05-07T07:50:28;75.32;;;47.42;;
57025;SDS011;43961;52.940;6.834;2023-05-07T07:52:53;63.80;;;45.33;;
57025;SDS011;43961;52.940;6.834;2023-05-07T07:55:19;74.55;;;48.03;;
57025;SDS011;43961;52.940;6.834;2023-05-07T07:57:48;64.50;;;46.33;;
57025;SDS011;43961;52.940;6.834;2023-05-07T08:00:14;69.47;;;46.88;;
57025;SDS011;43961;52.940;6.834;2023-05-07T08:02:40;70.32;;;45.42;;
57025;SDS011;43961;52.940;6.834;2023-05-07T08:05:10;62.90;;;45.78;;
57025;SDS011;43961;52.940;6.834;2023-05-07T08:07:36;61.80;;;44.75;;
57025;SDS011;43961;52.940;6.834;2023-05-07T08:10:01;79.63;;;46.35;;
57025;SDS011;43961;52.940;6.834;2023-05-07T08:12:27;61.25;;;43.47;;
57025;SDS011;43961;52.940;6.834;2023-05-07T08:14:53;66.57;;;43.08;;
57025;SDS011;43961;52.940;6.834;2023-05-07T08:17:19;64.05;;;45.03;;
57025;SDS011;43961;52.940;6.834;2023-05-07T08:19:47;62.33;;;44.97;;
57025;SDS011;43961;52.940;6.834;2023-05-07T08:22:13;61.40;;;45.45;;
57025;SDS011;43961;52.940;6.834;2023-05-07T08:24:39;67.72;;;44.72;;
57025;SDS011;43961;52.940;6.834;2023-05-07T08:27:05;59.75;;;42.42;;
57025;SDS011;43961;52.940;6.834;2023-05-07T08:29:30;64.32;;;44.50;;
57025;SDS011;43961;52.940;6.834;2023-05-07T08:31:56;63.00;;;44.20;;
57025;SDS011;43961;52.940;6.834;2023-05-07T08:34:22;61.75;;;42.67;;
57025;SDS011;43961;52.940;6.834;2023-05-07T08:36:47;56.75;;;42.85;;
57025;SDS011;43961;52.940;6.834;2023-05-07T08:39:14;51.53;;;38.30;;
57025;SDS011;43961;52.940;6.834;2023-05-07T08:41:43;67.50;;;41.60;;
57025;SDS011;43961;52.940;6.834;2023-05-07T08:44:11;59.95;;;41.38;;
57025;SDS011;43961;52.940;6.834;2023-05-07T08:46:39;54.97;;;40.38;;
57025;SDS011;43961;52.940;6.834;2023-05-07T08:49:06;57.80;;;39.53;;
57025;SDS011;43961;52.940;6.834;2023-05-07T08:51:33;59.55;;;41.80;;
57025;SDS011;43961;52.940;6.834;2023-05-07T08:54:00;57.17;;;41.60;;
57025;SDS011;43961;52.940;6.834;2023-05-07T08:56:27;59.03;;;40.45;;
57025;SDS011;43961;52.940;6.834;2023-05-07T08:58:52;50.47;;;38.85;;
57025;SDS011;43961;52.940;6.834;2023-05-07T09:01:21;54.85;;;39.40;;
57025;SDS011;43961;52.940;6.834;2023-05-07T09:03:47;53.97;;;39.97;;
57025;SDS011;43961;52.940;6.834;2023-05-07T09:06:13;53.90;;;38.83;;
57025;SDS011;43961;52.940;6.834;2023-05-07T09:08:40;53.53;;;37.65;;
57025;SDS011;43961;52.940;6.834;2023-05-07T09:11:09;52.25;;;38.83;;
57025;SDS011;43961;52.940;6.834;2023-05-07T09:13:35;51.72;;;37.65;;
57025;SDS011;43961;52.940;6.834;2023-05-07T09:16:11;52.58;;;38.28;;
57025;SDS011;43961;52.940;6.834;2023-05-07T09:18:43;54.20;;;38.17;;
57025;SDS011;43961;52.940;6.834;2023-05-07T09:21:10;44.17;;;35.70;;
57025;SDS011;43961;52.940;6.834;2023-05-07T09:23:37;52.03;;;38.20;;
57025;SDS011;43961;52.940;6.834;2023-05-07T09:26:03;48.35;;;35.13;;
57025;SDS011;43961;52.940;6.834;2023-05-07T09:28:29;46.35;;;35.65;;
57025;SDS011;43961;52.940;6.834;2023-05-07T09:30:55;52.08;;;37.65;;
57025;SDS011;43961;52.940;6.834;2023-05-07T09:33:20;49.80;;;35.30;;
57025;SDS011;43961;52.940;6.834;2023-05-07T09:35:46;51.58;;;37.05;;
57025;SDS011;43961;52.940;6.834;2023-05-07T09:38:17;48.15;;;36.13;;
57025;SDS011;43961;52.940;6.834;2023-05-07T09:40:45;45.75;;;35.03;;
57025;SDS011;43961;52.940;6.834;2023-05-07T09:43:11;47.90;;;34.65;;
57025;SDS011;43961;52.940;6.834;2023-05-07T09:45:38;56.25;;;37.10;;
57025;SDS011;43961;52.940;6.834;2023-05-07T09:48:05;53.50;;;37.72;;
57025;SDS011;43961;52.940;6.834;2023-05-07T09:50:34;47.75;;;36.80;;
57025;SDS011;43961;52.940;6.834;2023-05-07T09:53:02;47.00;;;34.00;;
57025;SDS011;43961;52.940;6.834;2023-05-07T09:55:28;43.88;;;35.00;;
57025;SDS011;43961;52.940;6.834;2023-05-07T09:57:54;42.92;;;33.50;;
57025;SDS011;43961;52.940;6.834;2023-05-07T10:00:23;49.78;;;36.88;;
57025;SDS011;43961;52.940;6.834;2023-05-07T10:02:53;41.42;;;33.42;;
57025;SDS011;43961;52.940;6.834;2023-05-07T10:05:22;46.90;;;33.83;;
57025;SDS011;43961;52.940;6.834;2023-05-07T10:07:49;47.40;;;36.85;;
57025;SDS011;43961;52.940;6.834;2023-05-07T10:10:15;47.50;;;35.88;;
57025;SDS011;43961;52.940;6.834;2023-05-07T10:12:42;47.47;;;35.45;;
57025;SDS011;43961;52.940;6.834;2023-05-07T10:15:08;44.03;;;35.92;;
57025;SDS011;43961;52.940;6.834;2023-05-07T10:17:38;42.05;;;35.03;;
57025;SDS011;43961;52.940;6.834;2023-05-07T10:20:05;42.88;;;33.38;;
57025;SDS011;43961;52.940;6.834;2023-05-07T10:22:33;41.97;;;32.70;;
57025;SDS011;43961;52.940;6.834;2023-05-07T10:25:20;44.08;;;34.65;;
57025;SDS011;43961;52.940;6.834;2023-05-07T10:27:50;38.08;;;32.30;;
57025;SDS011;43961;52.940;6.834;2023-05-07T10:32:59;48.78;;;35.53;;
57025;SDS011;43961;52.940;6.834;2023-05-07T10:35:32;45.05;;;34.72;;
57025;SDS011;43961;52.940;6.834;2023-05-07T10:38:04;48.08;;;34.58;;
57025;SDS011;43961;52.940;6.834;2023-05-07T10:40:30;40.38;;;31.52;;
57025;SDS011;43961;52.940;6.834;2023-05-07T10:42:57;39.38;;;32.80;;
57025;SDS011;43961;52.940;6.834;2023-05-07T10:45:25;38.33;;;32.92;;
57025;SDS011;43961;52.940;6.834;2023-05-07T10:50:41;41.60;;;33.17;;
57025;SDS011;43961;52.940;6.834;2023-05-07T10:55:49;43.10;;;31.52;;
57025;SDS011;43961;52.940;6.834;2023-05-07T10:58:26;39.63;;;31.13;;
57025;SDS011;43961;52.940;6.834;2023-05-07T11:00:57;41.03;;;32.13;;
57025;SDS011;43961;52.940;6.834;2023-05-07T11:03:24;39.20;;;32.55;;
57025;SDS011;43961;52.940;6.834;2023-05-07T11:08:56;44.22;;;33.17;;
57025;SDS011;43961;52.940;6.834;2023-05-07T11:17:08;40.95;;;33.38;;
57025;SDS011;43961;52.940;6.834;2023-05-07T11:19:50;38.90;;;32.57;;
57025;SDS011;43961;52.940;6.834;2023-05-07T11:25:01;40.33;;;32.83;;
57025;SDS011;43961;52.940;6.834;2023-05-07T11:27:28;38.78;;;31.33;;
57025;SDS011;43961;52.940;6.834;2023-05-07T11:29:54;44.13;;;33.13;;
57025;SDS011;43961;52.940;6.834;2023-05-07T11:32:24;42.10;;;33.95;;
57025;SDS011;43961;52.940;6.834;2023-05-07T11:34:51;43.42;;;34.55;;
57025;SDS011;43961;52.940;6.834;2023-05-07T11:37:21;35.58;;;31.08;;
57025;SDS011;43961;52.940;6.834;2023-05-07T11:39:47;36.63;;;30.80;;
57025;SDS011;43961;52.940;6.834;2023-05-07T11:42:35;42.97;;;33.88;;
57025;SDS011;43961;52.940;6.834;2023-05-07T11:45:02;41.20;;;32.10;;
57025;SDS011;43961;52.940;6.834;2023-05-07T11:47:32;39.55;;;32.65;;
57025;SDS011;43961;52.940;6.834;2023-05-07T11:50:01;41.22;;;33.20;;
57025;SDS011;43961;52.940;6.834;2023-05-07T11:52:30;43.92;;;36.63;;
57025;SDS011;43961;52.940;6.834;2023-05-07T11:54:57;53.58;;;36.92;;
57025;SDS011;43961;52.940;6.834;2023-05-07T11:57:24;41.85;;;34.70;;
57025;SDS011;43961;52.940;6.834;2023-05-07T11:59:57;44.60;;;35.35;;
57025;SDS011;43961;52.940;6.834;2023-05-07T12:02:24;45.65;;;35.40;;
57025;SDS011;43961;52.940;6.834;2023-05-07T12:04:52;44.80;;;36.38;;
57025;SDS011;43961;52.940;6.834;2023-05-07T12:07:18;40.63;;;33.10;;
57025;SDS011;43961;52.940;6.834;2023-05-07T12:09:44;40.83;;;33.63;;
57025;SDS011;43961;52.940;6.834;2023-05-07T12:12:11;41.53;;;34.45;;
57025;SDS011;43961;52.940;6.834;2023-05-07T12:14:41;38.47;;;34.10;;
57025;SDS011;43961;52.940;6.834;2023-05-07T12:17:07;41.95;;;33.17;;
57025;SDS011;43961;52.940;6.834;2023-05-07T12:19:34;40.55;;;33.85;;
57025;SDS011;43961;52.940;6.834;2023-05-07T12:22:02;39.67;;;33.53;;
57025;SDS011;43961;52.940;6.834;2023-05-07T12:24:28;38.63;;;33.17;;
57025;SDS011;43961;52.940;6.834;2023-05-07T12:27:06;44.40;;;33.13;;
57025;SDS011;43961;52.940;6.834;2023-05-07T12:29:32;40.75;;;35.08;;
57025;SDS011;43961;52.940;6.834;2023-05-07T12:31:57;39.95;;;32.70;;
57025;SDS011;43961;52.940;6.834;2023-05-07T12:34:23;38.95;;;32.17;;
57025;SDS011;43961;52.940;6.834;2023-05-07T12:36:49;39.33;;;30.83;;
57025;SDS011;43961;52.940;6.834;2023-05-07T12:39:15;38.35;;;33.53;;
57025;SDS011;43961;52.940;6.834;2023-05-07T12:41:56;38.08;;;32.58;;
57025;SDS011;43961;52.940;6.834;2023-05-07T12:44:30;40.72;;;33.40;;
57025;SDS011;43961;52.940;6.834;2023-05-07T12:46:57;35.92;;;30.98;;
57025;SDS011;43961;52.940;6.834;2023-05-07T12:49:23;37.15;;;31.80;;
57025;SDS011;43961;52.940;6.834;2023-05-07T12:51:50;42.65;;;34.47;;
57025;SDS011;43961;52.940;6.834;2023-05-07T12:54:28;35.85;;;31.45;;
57025;SDS011;43961;52.940;6.834;2023-05-07T12:57:06;50.75;;;33.63;;
57025;SDS011;43961;52.940;6.834;2023-05-07T12:59:33;37.72;;;30.55;;
57025;SDS011;43961;52.940;6.834;2023-05-07T13:02:03;34.10;;;29.35;;
57025;SDS011;43961;52.940;6.834;2023-05-07T13:04:29;34.80;;;28.75;;
57025;SDS011;43961;52.940;6.834;2023-05-07T13:06:55;33.08;;;29.60;;
57025;SDS011;43961;52.940;6.834;2023-05-07T13:09:21;38.67;;;27.95;;
57025;SDS011;43961;52.940;6.834;2023-05-07T13:11:48;44.90;;;29.23;;
57025;SDS011;43961;52.940;6.834;2023-05-07T13:14:13;35.80;;;27.15;;
57025;SDS011;43961;52.940;6.834;2023-05-07T13:16:39;34.10;;;28.63;;
57025;SDS011;43961;52.940;6.834;2023-05-07T13:19:05;31.83;;;28.02;;
57025;SDS011;43961;52.940;6.834;2023-05-07T13:21:32;32.40;;;28.42;;
57025;SDS011;43961;52.940;6.834;2023-05-07T13:23:58;31.70;;;28.30;;
57025;SDS011;43961;52.940;6.834;2023-05-07T13:26:23;31.77;;;28.35;;
57025;SDS011;43961;52.940;6.834;2023-05-07T13:28:49;33.15;;;29.65;;
57025;SDS011;43961;52.940;6.834;2023-05-07T13:31:16;40.10;;;30.95;;
57025;SDS011;43961;52.940;6.834;2023-05-07T13:33:43;35.42;;;31.75;;
57025;SDS011;43961;52.940;6.834;2023-05-07T13:36:08;36.10;;;31.33;;
57025;SDS011;43961;52.940;6.834;2023-05-07T13:38:34;36.20;;;31.58;;
57025;SDS011;43961;52.940;6.834;2023-05-07T13:41:00;35.10;;;30.83;;
57025;SDS011;43961;52.940;6.834;2023-05-07T13:43:25;34.85;;;30.92;;
57025;SDS011;43961;52.940;6.834;2023-05-07T13:45:51;32.30;;;28.70;;
57025;SDS011;43961;52.940;6.834;2023-05-07T13:48:17;33.58;;;29.80;;
57025;SDS011;43961;52.940;6.834;2023-05-07T13:50:42;32.28;;;28.77;;
57025;SDS011;43961;52.940;6.834;2023-05-07T13:53:08;34.13;;;30.13;;
57025;SDS011;43961;52.940;6.834;2023-05-07T13:55:34;33.63;;;30.02;;
57025;SDS011;43961;52.940;6.834;2023-05-07T13:58:00;32.38;;;29.13;;
57025;SDS011;43961;52.940;6.834;2023-05-07T14:00:28;33.38;;;29.95;;
57025;SDS011;43961;52.940;6.834;2023-05-07T14:02:55;38.40;;;28.48;;
57025;SDS011;43961;52.940;6.834;2023-05-07T14:05:21;33.03;;;29.63;;
57025;SDS011;43961;52.940;6.834;2023-05-07T14:07:53;32.22;;;28.70;;
57025;SDS011;43961;52.940;6.834;2023-05-07T14:10:21;41.13;;;26.13;;
57025;SDS011;43961;52.940;6.834;2023-05-07T14:12:47;30.98;;;27.73;;
57025;SDS011;43961;52.940;6.834;2023-05-07T14:15:13;31.17;;;27.85;;
57025;SDS011;43961;52.940;6.834;2023-05-07T14:17:38;29.08;;;26.00;;
57025;SDS011;43961;52.940;6.834;2023-05-07T14:20:05;30.10;;;27.05;;
57025;SDS011;43961;52.940;6.834;2023-05-07T14:22:32;31.33;;;28.10;;
57025;SDS011;43961;52.940;6.834;2023-05-07T14:24:57;29.35;;;25.80;;
57025;SDS011;43961;52.940;6.834;2023-05-07T14:27:23;33.38;;;28.98;;
57025;SDS011;43961;52.940;6.834;2023-05-07T14:29:49;35.88;;;28.40;;
57025;SDS011;43961;52.940;6.834;2023-05-07T14:32:18;30.65;;;27.42;;
57025;SDS011;43961;52.940;6.834;2023-05-07T14:34:44;31.50;;;27.27;;
57025;SDS011;43961;52.940;6.834;2023-05-07T14:37:10;29.52;;;26.33;;
57025;SDS011;43961;52.940;6.834;2023-05-07T14:39:37;32.83;;;29.13;;
57025;SDS011;43961;52.940;6.834;2023-05-07T14:42:02;34.13;;;30.35;;